createdAt,value
2023-05-05T00:00:58.894Z,63.76
2023-05-05T00:03:25.882Z,63.71
2023-05-05T00:05:54.751Z,63.93
2023-05-05T00:08:21.817Z,63.95
2023-05-05T00:10:50.446Z,64.07
2023-05-05T00:13:17.660Z,63.82
2023-05-05T00:15:45.819Z,63.78
2023-05-05T00:18:15.124Z,63.09
2023-05-05T00:20:42.078Z,62.84
2023-05-05T00:23:08.925Z,63.24
2023-05-05T00:25:35.795Z,63.71
2023-05-05T00:28:02.759Z,64.63
2023-05-05T00:30:30.816Z,65.26
2023-05-05T00:32:57.837Z,65.12
2023-05-05T00:35:24.869Z,64.92
2023-05-05T00:37:51.683Z,65.06
2023-05-05T00:40:19.191Z,64.94
2023-05-05T00:42:47.442Z,64.92
2023-05-05T00:45:15.285Z,64.55
2023-05-05T00:47:46.892Z,64.36
2023-05-05T00:50:21.757Z,63.86
2023-05-05T00:52:48.688Z,63.60
2023-05-05T00:55:15.505Z,63.56
2023-05-05T00:57:42.300Z,64.41
2023-05-05T01:00:10.085Z,64.33
2023-05-05T01:02:39.293Z,64.33
2023-05-05T01:05:08.061Z,64.25
2023-05-05T01:07:43.831Z,64.07
2023-05-05T01:10:20.265Z,63.96
2023-05-05T01:13:15.308Z,64.42
2023-05-05T01:16:12.663Z,64.16
2023-05-05T01:19:09.411Z,64.63
2023-05-05T01:21:44.233Z,64.98
2023-05-05T01:24:20.202Z,64.97
2023-05-05T01:27:09.660Z,64.84
2023-05-05T01:29:58.386Z,64.66
2023-05-05T01:32:30.031Z,64.40
2023-05-05T01:35:01.058Z,64.05
2023-05-05T01:37:42.917Z,64.04
2023-05-05T01:40:10.968Z,64.31
2023-05-05T01:42:38.391Z,64.28
2023-05-05T01:45:06.002Z,64.46
2023-05-05T01:47:32.911Z,64.11
2023-05-05T01:49:59.933Z,63.48
2023-05-05T01:52:27.162Z,64.27
2023-05-05T01:54:54.104Z,64.41
2023-05-05T01:57:21.893Z,64.65
2023-05-05T01:59:48.880Z,65.05
2023-05-05T02:02:15.758Z,64.52
2023-05-05T02:04:43.602Z,64.75
2023-05-05T02:07:11.839Z,64.95
2023-05-05T02:09:38.778Z,64.82
2023-05-05T02:12:05.987Z,64.83
2023-05-05T02:14:33.437Z,64.75
2023-05-05T02:17:00.389Z,65.16
2023-05-05T02:19:32.607Z,65.36
2023-05-05T02:21:59.572Z,65.47
2023-05-05T02:24:26.759Z,65.85
2023-05-05T02:26:53.659Z,65.97
2023-05-05T02:29:28.898Z,66.22
2023-05-05T02:31:58.458Z,66.11
2023-05-05T02:34:26.732Z,66.37
2023-05-05T02:36:56.060Z,66.02
2023-05-05T02:39:26.548Z,65.84
2023-05-05T02:41:54.299Z,65.74
2023-05-05T02:44:23.569Z,65.71
2023-05-05T02:46:50.505Z,65.56
2023-05-05T02:49:17.427Z,65.50
2023-05-05T02:51:44.274Z,65.41
2023-05-05T02:54:11.113Z,65.47
2023-05-05T02:56:44.772Z,65.61
2023-05-05T02:59:29.945Z,65.50
2023-05-05T03:02:07.363Z,65.32
2023-05-05T03:04:40.076Z,65.37
2023-05-05T03:07:15.490Z,65.24
2023-05-05T03:10:16.335Z,65.40
2023-05-05T03:12:54.044Z,65.32
2023-05-05T03:15:26.645Z,65.37
2023-05-05T03:17:54.119Z,65.85
2023-05-05T03:20:21.106Z,65.93
2023-05-05T03:22:48.100Z,66.35
2023-05-05T03:25:15.139Z,66.57
2023-05-05T03:27:42.108Z,66.62
2023-05-05T03:30:10.514Z,66.81
2023-05-05T03:32:37.824Z,67.10
2023-05-05T03:35:05.283Z,66.80
2023-05-05T03:37:32.239Z,66.70
2023-05-05T03:39:59.046Z,66.30
2023-05-05T03:42:26.001Z,66.25
2023-05-05T03:44:53.907Z,66.32
2023-05-05T03:47:20.745Z,66.42
2023-05-05T03:49:47.994Z,67.03
2023-05-05T03:52:15.214Z,67.37
2023-05-05T03:54:43.211Z,67.50
2023-05-05T03:57:10.165Z,67.88
2023-05-05T03:59:37.064Z,68.12
2023-05-05T04:02:03.985Z,68.02
2023-05-05T04:04:31.175Z,67.83
2023-05-05T04:06:58.236Z,67.80
2023-05-05T04:09:25.171Z,67.69
2023-05-05T04:11:51.996Z,67.85
2023-05-05T04:14:18.977Z,67.92
2023-05-05T04:16:46.033Z,68.19
2023-05-05T04:19:13.446Z,68.01
2023-05-05T04:21:40.524Z,67.82
2023-05-05T04:24:07.388Z,67.59
2023-05-05T04:26:34.540Z,67.12
2023-05-05T04:29:01.435Z,65.95
2023-05-05T04:31:28.485Z,63.85
2023-05-05T04:33:55.491Z,61.17
2023-05-05T04:36:22.421Z,59.75
2023-05-05T04:38:49.344Z,58.83
2023-05-05T04:41:16.215Z,56.62
2023-05-05T04:43:43.090Z,54.41
2023-05-05T04:46:10.292Z,52.93
2023-05-05T04:48:38.225Z,50.05
2023-05-05T04:51:06.617Z,50.11
2023-05-05T04:53:33.684Z,51.55
2023-05-05T04:56:01.626Z,52.65
2023-05-05T04:58:29.073Z,53.24
2023-05-05T05:00:56.061Z,53.95
2023-05-05T05:03:23.035Z,53.58
2023-05-05T05:05:50.287Z,53.34
2023-05-05T05:08:18.015Z,53.21
2023-05-05T05:10:45.128Z,52.14
2023-05-05T05:13:12.929Z,49.31
2023-05-05T05:15:41.147Z,46.78
2023-05-05T05:18:08.102Z,44.31
2023-05-05T05:20:35.024Z,42.85
2023-05-05T05:23:04.916Z,41.33
2023-05-05T05:25:31.901Z,41.35
2023-05-05T05:28:09.503Z,41.61
2023-05-05T05:30:37.310Z,42.48
2023-05-05T05:33:04.221Z,42.36
2023-05-05T05:35:31.729Z,41.51
2023-05-05T05:37:58.689Z,40.40
2023-05-05T05:40:25.555Z,38.14
2023-05-05T05:42:52.363Z,35.77
2023-05-05T05:45:19.417Z,36.84
2023-05-05T05:47:46.476Z,37.56
2023-05-05T05:50:17.371Z,37.57
2023-05-05T05:52:44.380Z,37.70
2023-05-05T05:55:11.349Z,38.26
2023-05-05T05:57:38.267Z,38.76
2023-05-05T06:00:06.511Z,39.40
2023-05-05T06:02:34.280Z,39.05
2023-05-05T06:05:06.688Z,39.48
2023-05-05T06:07:33.743Z,37.60
2023-05-05T06:10:10.893Z,37.18
2023-05-05T06:12:51.398Z,35.58
2023-05-05T06:15:19.524Z,34.34
2023-05-05T06:17:47.846Z,34.45
2023-05-05T06:20:15.349Z,34.99
2023-05-05T06:22:42.296Z,35.17
2023-05-05T06:25:09.442Z,36.09
2023-05-05T06:27:36.505Z,36.26
2023-05-05T06:30:03.729Z,35.53
2023-05-05T06:32:30.853Z,35.69
2023-05-05T06:34:57.874Z,35.46
2023-05-05T06:37:27.281Z,34.79
2023-05-05T06:39:54.324Z,34.59
2023-05-05T06:42:21.555Z,34.50
2023-05-05T06:44:48.471Z,33.99
2023-05-05T06:47:15.418Z,33.13
2023-05-05T06:49:42.351Z,32.92
2023-05-05T06:52:09.151Z,32.44
2023-05-05T06:54:36.146Z,32.31
2023-05-05T06:57:03.130Z,31.80
2023-05-05T06:59:30.077Z,32.15
2023-05-05T07:02:00.098Z,30.64
2023-05-05T07:04:28.386Z,29.68
2023-05-05T07:06:55.458Z,30.89
2023-05-05T07:09:22.329Z,30.05
2023-05-05T07:11:49.322Z,29.73
2023-05-05T07:14:16.155Z,29.71
2023-05-05T07:16:43.081Z,30.95
2023-05-05T07:19:09.961Z,30.82
2023-05-05T07:21:36.883Z,31.00
2023-05-05T07:24:04.275Z,32.58
2023-05-05T07:26:31.397Z,31.32
2023-05-05T07:28:59.249Z,30.34
2023-05-05T07:31:26.750Z,30.62
2023-05-05T07:33:56.271Z,31.20
2023-05-05T07:36:23.497Z,32.17
2023-05-05T07:38:50.571Z,31.73
2023-05-05T07:41:20.565Z,30.63
2023-05-05T07:43:50.136Z,29.26
2023-05-05T07:46:18.121Z,29.53
2023-05-05T07:48:45.068Z,30.30
2023-05-05T07:51:12.211Z,29.15
2023-05-05T07:53:41.184Z,29.47
2023-05-05T07:56:09.133Z,30.26
2023-05-05T07:58:36.018Z,30.31
2023-05-05T08:01:03.177Z,29.84
2023-05-05T08:03:30.273Z,29.90
2023-05-05T08:05:57.273Z,30.18
2023-05-05T08:08:25.235Z,30.01
2023-05-05T08:10:53.546Z,30.14
2023-05-05T08:13:20.552Z,29.76
2023-05-05T08:15:47.797Z,30.10
2023-05-05T08:18:14.952Z,30.48
2023-05-05T08:20:43.479Z,29.55
2023-05-05T08:23:11.977Z,28.73
2023-05-05T08:25:39.124Z,28.89
2023-05-05T08:28:07.994Z,28.32
2023-05-05T08:30:35.518Z,28.13
2023-05-05T08:33:03.705Z,27.13
2023-05-05T08:35:30.777Z,29.02
2023-05-05T08:37:59.233Z,28.22
2023-05-05T08:40:30.206Z,28.93
2023-05-05T08:42:57.376Z,27.88
2023-05-05T08:45:24.217Z,27.83
2023-05-05T08:47:51.219Z,28.13
2023-05-05T08:50:18.205Z,28.32
2023-05-05T08:52:45.277Z,28.46
2023-05-05T08:55:27.244Z,28.16
2023-05-05T08:57:58.267Z,28.14
2023-05-05T09:00:27.495Z,28.10
2023-05-05T09:02:58.594Z,27.76
2023-05-05T09:05:26.741Z,27.12
2023-05-05T09:07:53.530Z,28.31
2023-05-05T09:10:20.947Z,28.33
2023-05-05T09:12:50.432Z,28.44
2023-05-05T09:15:17.422Z,27.20
2023-05-05T09:17:44.528Z,28.39
2023-05-05T09:20:12.809Z,28.64
2023-05-05T09:22:40.799Z,28.83
2023-05-05T09:25:10.167Z,29.06
2023-05-05T09:27:42.580Z,29.92
2023-05-05T09:30:11.310Z,30.95
2023-05-05T09:32:49.242Z,31.87
2023-05-05T09:35:16.693Z,31.71
2023-05-05T09:37:43.896Z,31.04
2023-05-05T09:40:12.072Z,28.90
2023-05-05T09:42:39.696Z,29.25
2023-05-05T09:45:27.595Z,29.95
2023-05-05T09:47:59.092Z,28.48
2023-05-05T09:50:31.091Z,29.08
2023-05-05T09:53:02.208Z,29.45
2023-05-05T09:55:31.497Z,29.60
2023-05-05T09:58:17.371Z,29.57
2023-05-05T10:00:44.366Z,28.74
2023-05-05T10:03:11.412Z,28.20
2023-05-05T10:05:54.674Z,29.25
2023-05-05T10:08:23.553Z,28.18
2023-05-05T10:10:54.339Z,29.61
2023-05-05T10:13:22.987Z,29.41
2023-05-05T10:15:51.853Z,29.09
2023-05-05T10:18:25.797Z,28.85
2023-05-05T10:20:55.534Z,29.35
2023-05-05T10:23:23.443Z,29.14
2023-05-05T10:25:55.930Z,28.21
2023-05-05T10:28:28.807Z,28.57
2023-05-05T10:30:57.035Z,29.01
2023-05-05T10:33:32.487Z,28.48
2023-05-05T10:36:02.729Z,27.88
2023-05-05T10:38:31.183Z,28.96
2023-05-05T10:41:02.293Z,28.40
2023-05-05T10:43:31.388Z,28.02
2023-05-05T10:45:58.437Z,28.85
2023-05-05T10:48:48.590Z,28.97
2023-05-05T10:51:49.032Z,28.76
2023-05-05T10:54:54.833Z,28.38
2023-05-05T10:57:24.034Z,28.47
2023-05-05T10:59:51.015Z,28.98
2023-05-05T11:02:30.374Z,29.28
2023-05-05T11:05:23.723Z,29.07
2023-05-05T11:07:51.699Z,29.06
2023-05-05T11:10:22.948Z,29.23
2023-05-05T11:12:59.538Z,27.05
2023-05-05T11:15:27.570Z,29.21
2023-05-05T11:18:02.577Z,29.54
2023-05-05T11:20:37.904Z,31.02
2023-05-05T11:23:05.337Z,28.40
2023-05-05T11:25:35.940Z,29.24
2023-05-05T11:28:11.420Z,29.46
2023-05-05T11:30:57.463Z,28.82
2023-05-05T11:33:31.611Z,29.17
2023-05-05T11:35:59.342Z,28.62
2023-05-05T11:38:47.803Z,28.99
2023-05-05T11:41:20.009Z,29.15
2023-05-05T11:43:46.885Z,28.51
2023-05-05T11:46:14.643Z,29.21
2023-05-05T11:48:49.013Z,28.00
2023-05-05T11:51:17.063Z,29.32
2023-05-05T11:53:48.215Z,29.28
2023-05-05T11:56:20.154Z,29.42
2023-05-05T11:58:50.044Z,29.11
2023-05-05T12:01:17.005Z,29.75
2023-05-05T12:03:46.001Z,30.67
2023-05-05T12:06:13.407Z,29.87
2023-05-05T12:08:41.275Z,30.09
2023-05-05T12:11:09.249Z,31.00
2023-05-05T12:13:36.150Z,30.01
2023-05-05T12:16:10.040Z,29.75
2023-05-05T12:18:39.249Z,29.64
2023-05-05T12:21:19.024Z,29.21
2023-05-05T12:23:46.998Z,29.27
2023-05-05T12:26:32.340Z,29.30
2023-05-05T12:29:00.095Z,29.78
2023-05-05T12:31:40.329Z,29.55
2023-05-05T12:34:10.609Z,29.37
2023-05-05T12:36:38.459Z,29.11
2023-05-05T12:39:05.601Z,29.40
2023-05-05T12:41:33.328Z,28.59
2023-05-05T12:44:02.218Z,29.67
2023-05-05T12:46:32.614Z,29.27
2023-05-05T12:49:05.657Z,29.07
2023-05-05T12:51:33.485Z,30.43
2023-05-05T12:54:03.488Z,29.40
2023-05-05T12:56:41.183Z,29.64
2023-05-05T12:59:12.478Z,29.33
2023-05-05T13:01:52.649Z,29.45
2023-05-05T13:04:22.290Z,29.60
2023-05-05T13:07:12.484Z,30.35
2023-05-05T13:09:39.509Z,29.93
2023-05-05T13:12:15.468Z,29.93
2023-05-05T13:14:42.519Z,28.83
2023-05-05T13:17:10.851Z,27.68
2023-05-05T13:19:42.301Z,27.37
2023-05-05T13:22:10.301Z,27.61
2023-05-05T13:24:49.870Z,27.19
2023-05-05T13:27:19.235Z,27.04
2023-05-05T13:29:46.316Z,27.40
2023-05-05T13:32:13.084Z,28.14
2023-05-05T13:34:39.785Z,28.44
2023-05-05T13:37:06.754Z,27.96
2023-05-05T13:39:33.678Z,28.56
2023-05-05T13:42:00.615Z,27.84
2023-05-05T13:44:27.648Z,28.54
2023-05-05T13:46:54.764Z,28.24
2023-05-05T13:49:21.743Z,28.63
2023-05-05T13:51:48.678Z,28.83
2023-05-05T13:54:15.534Z,28.88
2023-05-05T13:56:42.670Z,29.73
2023-05-05T13:59:09.709Z,29.85
2023-05-05T14:01:36.703Z,29.91
2023-05-05T14:04:05.448Z,30.26
2023-05-05T14:06:33.863Z,31.00
2023-05-05T14:09:00.912Z,31.38
2023-05-05T14:11:27.912Z,31.28
2023-05-05T14:13:54.743Z,32.22
2023-05-05T14:16:21.829Z,32.45
2023-05-05T14:18:48.913Z,32.54
2023-05-05T14:21:15.887Z,32.55
2023-05-05T14:23:42.829Z,32.93
2023-05-05T14:26:09.779Z,32.35
2023-05-05T14:28:36.673Z,32.58
2023-05-05T14:31:03.476Z,32.19
2023-05-05T14:33:30.410Z,32.10
2023-05-05T14:35:57.308Z,32.70
2023-05-05T14:38:24.405Z,32.05
2023-05-05T14:40:51.455Z,31.98
2023-05-05T14:43:18.349Z,32.57
2023-05-05T14:45:45.355Z,32.74
2023-05-05T14:48:12.121Z,32.81
2023-05-05T14:50:40.677Z,32.16
2023-05-05T14:53:07.571Z,32.69
2023-05-05T14:55:34.398Z,31.57
2023-05-05T14:58:01.328Z,32.28
2023-05-05T15:00:29.132Z,32.16
2023-05-05T15:02:56.275Z,32.15
2023-05-05T15:05:23.372Z,32.72
2023-05-05T15:07:50.542Z,32.51
2023-05-05T15:10:18.207Z,32.94
2023-05-05T15:12:46.657Z,32.43
2023-05-05T15:15:13.681Z,32.82
2023-05-05T15:17:41.981Z,32.61
2023-05-05T15:20:08.880Z,32.46
2023-05-05T15:22:37.045Z,32.05
2023-05-05T15:25:04.216Z,30.98
2023-05-05T15:27:33.661Z,32.13
2023-05-05T15:30:01.317Z,31.85
2023-05-05T15:32:29.514Z,32.26
2023-05-05T15:34:56.576Z,32.34
2023-05-05T15:37:23.518Z,32.25
2023-05-05T15:39:50.575Z,32.32
2023-05-05T15:42:17.437Z,32.31
2023-05-05T15:44:44.356Z,32.64
2023-05-05T15:47:12.031Z,33.05
2023-05-05T15:49:38.981Z,33.52
2023-05-05T15:52:05.947Z,33.57
2023-05-05T15:54:32.850Z,33.28
2023-05-05T15:56:59.914Z,34.13
2023-05-05T15:59:26.826Z,35.10
2023-05-05T16:01:54.293Z,35.69
2023-05-05T16:04:21.386Z,36.19
2023-05-05T16:06:48.386Z,36.11
2023-05-05T16:09:15.368Z,36.38
2023-05-05T16:11:42.213Z,37.25
2023-05-05T16:14:09.072Z,36.78
2023-05-05T16:16:36.026Z,37.41
2023-05-05T16:19:03.162Z,38.17
2023-05-05T16:21:30.127Z,38.70
2023-05-05T16:23:57.053Z,38.65
2023-05-05T16:26:23.899Z,38.85
2023-05-05T16:28:50.855Z,38.71
2023-05-05T16:31:17.931Z,38.10
2023-05-05T16:33:44.999Z,38.42
2023-05-05T16:36:12.617Z,38.18
2023-05-05T16:38:40.437Z,38.36
2023-05-05T16:41:08.074Z,39.13
2023-05-05T16:43:37.398Z,38.93
2023-05-05T16:46:04.525Z,39.27
2023-05-05T16:48:31.645Z,39.31
2023-05-05T16:50:58.824Z,40.09
2023-05-05T16:53:25.829Z,40.09
2023-05-05T16:55:53.591Z,40.55
2023-05-05T16:58:21.215Z,40.14
2023-05-05T17:00:49.477Z,39.82
2023-05-05T17:03:17.264Z,38.92
2023-05-05T17:05:46.636Z,39.36
2023-05-05T17:08:15.589Z,39.97
2023-05-05T17:10:42.790Z,40.61
2023-05-05T17:13:10.787Z,40.97
2023-05-05T17:15:37.743Z,40.59
2023-05-05T17:18:05.494Z,39.76
2023-05-05T17:20:32.429Z,39.61
2023-05-05T17:22:59.583Z,39.48
2023-05-05T17:25:26.425Z,39.67
2023-05-05T17:27:54.321Z,39.54
2023-05-05T17:30:21.235Z,38.98
2023-05-05T17:32:48.053Z,39.89
2023-05-05T17:35:15.285Z,39.65
2023-05-05T17:37:42.460Z,39.29
2023-05-05T17:40:09.452Z,39.89
2023-05-05T17:42:36.282Z,40.29
2023-05-05T17:45:03.507Z,40.47
2023-05-05T17:47:30.545Z,40.58
2023-05-05T17:49:57.554Z,40.89
2023-05-05T17:52:24.469Z,41.12
2023-05-05T17:54:51.699Z,41.10
2023-05-05T17:57:21.283Z,40.85
2023-05-05T17:59:50.111Z,40.83
2023-05-05T18:02:16.834Z,42.63
2023-05-05T18:04:43.963Z,42.86
2023-05-05T18:07:12.682Z,41.74
2023-05-05T18:09:39.651Z,42.65
2023-05-05T18:12:08.271Z,42.82
2023-05-05T18:14:35.884Z,43.87
2023-05-05T18:17:02.978Z,44.69
2023-05-05T18:19:29.877Z,44.93
2023-05-05T18:21:57.642Z,45.38
2023-05-05T18:24:24.679Z,45.05
2023-05-05T18:26:52.259Z,45.64
2023-05-05T18:29:19.533Z,45.46
2023-05-05T18:31:49.731Z,45.56
2023-05-05T18:34:17.230Z,45.00
2023-05-05T18:36:44.350Z,45.07
2023-05-05T18:39:11.703Z,45.72
2023-05-05T18:41:38.601Z,45.22
2023-05-05T18:44:05.722Z,45.70
2023-05-05T18:46:32.713Z,46.10
2023-05-05T18:49:00.823Z,46.25
2023-05-05T18:51:28.813Z,47.03
2023-05-05T18:53:55.692Z,48.09
2023-05-05T18:56:22.878Z,49.67
2023-05-05T18:58:49.844Z,49.76
2023-05-05T19:01:17.386Z,50.51
2023-05-05T19:03:50.763Z,50.94
2023-05-05T19:06:17.712Z,51.47
2023-05-05T19:08:45.912Z,52.06
2023-05-05T19:11:15.110Z,52.35
2023-05-05T19:13:42.550Z,51.69
2023-05-05T19:16:11.524Z,52.00
2023-05-05T19:18:39.238Z,52.65
2023-05-05T19:21:06.138Z,51.73
2023-05-05T19:23:33.661Z,52.16
2023-05-05T19:26:00.814Z,51.90
2023-05-05T19:28:27.619Z,51.98
2023-05-05T19:30:54.572Z,52.59
2023-05-05T19:33:21.539Z,52.97
2023-05-05T19:35:48.365Z,53.00
2023-05-05T19:38:16.032Z,53.83
2023-05-05T19:40:43.384Z,55.13
2023-05-05T19:43:10.489Z,54.62
2023-05-05T19:45:37.692Z,54.58
2023-05-05T19:48:04.978Z,54.47
2023-05-05T19:50:32.042Z,55.12
2023-05-05T19:52:58.975Z,55.29
2023-05-05T19:55:25.959Z,55.30
2023-05-05T19:57:52.778Z,56.16
2023-05-05T20:00:20.013Z,55.47
2023-05-05T20:02:48.743Z,53.34
2023-05-05T20:05:17.917Z,55.11
2023-05-05T20:07:47.017Z,55.72
2023-05-05T20:10:13.857Z,55.95
2023-05-05T20:12:48.184Z,56.40
2023-05-05T20:15:19.296Z,57.16
2023-05-05T20:17:47.520Z,57.12
2023-05-05T20:20:20.541Z,57.76
2023-05-05T20:22:47.641Z,58.84
2023-05-05T20:25:18.110Z,58.16
2023-05-05T20:27:45.868Z,58.63
2023-05-05T20:30:13.475Z,59.13
2023-05-05T20:32:40.893Z,58.33
2023-05-05T20:35:08.976Z,57.21
2023-05-05T20:37:36.014Z,58.44
2023-05-05T20:40:02.908Z,59.81
2023-05-05T20:42:29.929Z,58.70
2023-05-05T20:44:57.042Z,58.27
2023-05-05T20:47:24.511Z,58.94
2023-05-05T20:49:52.681Z,58.37
2023-05-05T20:52:19.763Z,58.90
2023-05-05T20:54:46.787Z,59.74
2023-05-05T20:57:13.717Z,60.81
2023-05-05T20:59:40.633Z,60.18
2023-05-05T21:02:07.850Z,59.89
2023-05-05T21:04:34.804Z,60.06
2023-05-05T21:07:01.809Z,59.74
2023-05-05T21:09:28.895Z,59.22
2023-05-05T21:11:55.843Z,60.59
2023-05-05T21:14:23.829Z,60.50
2023-05-05T21:16:50.951Z,60.60
2023-05-05T21:19:18.028Z,61.94
2023-05-05T21:21:44.970Z,63.64
2023-05-05T21:24:13.272Z,64.04
2023-05-05T21:26:46.983Z,64.85
2023-05-05T21:29:13.841Z,64.96
2023-05-05T21:31:40.759Z,63.59
2023-05-05T21:34:07.628Z,64.15
2023-05-05T21:36:34.640Z,63.61
2023-05-05T21:39:01.856Z,63.84
2023-05-05T21:41:28.855Z,63.78
2023-05-05T21:43:55.887Z,62.62
2023-05-05T21:46:23.115Z,63.08
2023-05-05T21:48:50.167Z,62.74
2023-05-05T21:51:17.551Z,63.13
2023-05-05T21:53:44.508Z,62.33
2023-05-05T21:56:11.495Z,62.33
2023-05-05T21:58:38.411Z,62.48
2023-05-05T22:01:05.551Z,62.46
2023-05-05T22:03:34.368Z,63.63
2023-05-05T22:06:01.491Z,65.22
2023-05-05T22:08:28.418Z,65.74
2023-05-05T22:10:55.281Z,66.02
2023-05-05T22:13:22.354Z,66.12
2023-05-05T22:15:49.354Z,66.25
2023-05-05T22:18:16.317Z,66.21
2023-05-05T22:20:44.169Z,65.42
2023-05-05T22:23:10.915Z,65.52
2023-05-05T22:25:37.696Z,65.64
2023-05-05T22:28:05.003Z,65.51
2023-05-05T22:30:32.035Z,65.35
2023-05-05T22:32:58.931Z,65.06
2023-05-05T22:35:25.786Z,64.81
2023-05-05T22:37:52.746Z,64.21
2023-05-05T22:40:19.529Z,63.75
2023-05-05T22:42:46.304Z,64.18
2023-05-05T22:45:13.909Z,67.80
2023-05-05T22:47:41.162Z,67.46
2023-05-05T22:50:09.104Z,65.96
2023-05-05T22:52:36.527Z,66.10
2023-05-05T22:55:03.638Z,65.32
2023-05-05T22:57:30.592Z,65.93
2023-05-05T22:59:57.651Z,65.83
2023-05-05T23:02:26.840Z,65.65
2023-05-05T23:04:53.876Z,65.27
2023-05-05T23:07:20.977Z,65.18
2023-05-05T23:09:48.117Z,63.79
2023-05-05T23:12:15.006Z,63.14
2023-05-05T23:14:42.025Z,61.53
2023-05-05T23:17:08.835Z,62.80
2023-05-05T23:19:36.380Z,62.67
2023-05-05T23:22:03.784Z,63.17
2023-05-05T23:24:31.171Z,64.19
2023-05-05T23:27:04.336Z,64.22
2023-05-05T23:29:31.460Z,68.80
2023-05-05T23:31:58.451Z,67.38
2023-05-05T23:34:26.084Z,68.27
2023-05-05T23:36:53.061Z,68.22
2023-05-05T23:39:19.941Z,69.11
2023-05-05T23:41:46.798Z,68.86
2023-05-05T23:44:13.678Z,69.88
2023-05-05T23:46:40.761Z,70.35
2023-05-05T23:49:07.592Z,70.20
2023-05-05T23:51:34.455Z,70.14
2023-05-05T23:54:01.513Z,70.76
2023-05-05T23:56:28.299Z,69.97
2023-05-05T23:58:55.196Z,71.28
